sensor_id;sensor_type;location;lat;lon;timestamp;P1;durP1;ratioP1;P2;durP2;ratioP2
30337;SDS011;17143;51.888;5.408;2023-07-22T00:10:32;7.40;;;4.00;;
30337;SDS011;17143;51.888;5.408;2023-07-22T00:25:34;7.40;;;4.53;;
30337;SDS011;17143;51.888;5.408;2023-07-22T00:40:36;11.87;;;4.93;;
30337;SDS011;17143;51.888;5.408;2023-07-22T00:55:38;8.87;;;5.20;;
30337;SDS011;17143;51.888;5.408;2023-07-22T01:10:41;11.13;;;5.70;;
30337;SDS011;17143;51.888;5.408;2023-07-22T01:25:43;9.17;;;4.77;;
30337;SDS011;17143;51.888;5.408;2023-07-22T01:40:46;9.77;;;5.50;;
30337;SDS011;17143;51.888;5.408;2023-07-22T01:55:48;9.30;;;5.17;;
30337;SDS011;17143;51.888;5.408;2023-07-22T02:10:50;10.57;;;5.90;;
30337;SDS011;17143;51.888;5.408;2023-07-22T02:25:52;11.53;;;5.80;;
30337;SDS011;17143;51.888;5.408;2023-07-22T02:40:59;11.30;;;5.90;;
30337;SDS011;17143;51.888;5.408;2023-07-22T02:56:04;10.70;;;5.07;;
30337;SDS011;17143;51.888;5.408;2023-07-22T03:11:07;12.13;;;6.47;;
30337;SDS011;17143;51.888;5.408;2023-07-22T03:26:09;11.27;;;5.93;;
30337;SDS011;17143;51.888;5.408;2023-07-22T03:41:11;12.90;;;6.50;;
30337;SDS011;17143;51.888;5.408;2023-07-22T03:56:13;10.23;;;6.00;;
30337;SDS011;17143;51.888;5.408;2023-07-22T04:11:15;16.33;;;6.07;;
30337;SDS011;17143;51.888;5.408;2023-07-22T04:26:17;11.17;;;5.73;;
30337;SDS011;17143;51.888;5.408;2023-07-22T04:41:19;13.87;;;6.70;;
30337;SDS011;17143;51.888;5.408;2023-07-22T04:56:21;13.00;;;6.70;;
30337;SDS011;17143;51.888;5.408;2023-07-22T05:11:24;14.23;;;6.70;;
30337;SDS011;17143;51.888;5.408;2023-07-22T05:26:26;12.83;;;7.27;;
30337;SDS011;17143;51.888;5.408;2023-07-22T05:41:28;13.03;;;6.83;;
30337;SDS011;17143;51.888;5.408;2023-07-22T05:56:30;13.93;;;7.03;;
30337;SDS011;17143;51.888;5.408;2023-07-22T06:11:32;15.77;;;7.53;;
30337;SDS011;17143;51.888;5.408;2023-07-22T06:26:34;11.17;;;6.67;;
30337;SDS011;17143;51.888;5.408;2023-07-22T06:41:36;13.23;;;7.27;;
30337;SDS011;17143;51.888;5.408;2023-07-22T06:56:38;11.70;;;6.27;;
30337;SDS011;17143;51.888;5.408;2023-07-22T07:11:40;16.03;;;6.87;;
30337;SDS011;17143;51.888;5.408;2023-07-22T07:26:42;9.63;;;6.03;;
30337;SDS011;17143;51.888;5.408;2023-07-22T07:41:44;9.30;;;5.10;;
30337;SDS011;17143;51.888;5.408;2023-07-22T07:56:46;12.07;;;4.67;;
30337;SDS011;17143;51.888;5.408;2023-07-22T08:11:48;6.47;;;4.53;;
30337;SDS011;17143;51.888;5.408;2023-07-22T08:26:50;6.37;;;3.53;;
30337;SDS011;17143;51.888;5.408;2023-07-22T08:41:52;6.10;;;3.50;;
30337;SDS011;17143;51.888;5.408;2023-07-22T08:56:56;6.60;;;3.07;;
30337;SDS011;17143;51.888;5.408;2023-07-22T09:11:58;8.00;;;3.83;;
30337;SDS011;17143;51.888;5.408;2023-07-22T09:27:01;8.73;;;3.43;;
30337;SDS011;17143;51.888;5.408;2023-07-22T09:42:03;4.83;;;2.87;;
30337;SDS011;17143;51.888;5.408;2023-07-22T09:57:06;6.57;;;2.57;;
30337;SDS011;17143;51.888;5.408;2023-07-22T10:12:08;5.83;;;2.77;;
30337;SDS011;17143;51.888;5.408;2023-07-22T10:27:11;5.20;;;2.00;;
30337;SDS011;17143;51.888;5.408;2023-07-22T10:42:16;3.73;;;1.80;;
30337;SDS011;17143;51.888;5.408;2023-07-22T10:57:26;2.40;;;1.80;;
30337;SDS011;17143;51.888;5.408;2023-07-22T11:12:29;2.60;;;1.67;;
30337;SDS011;17143;51.888;5.408;2023-07-22T11:27:32;4.17;;;1.60;;
30337;SDS011;17143;51.888;5.408;2023-07-22T11:42:34;2.80;;;1.53;;
30337;SDS011;17143;51.888;5.408;2023-07-22T11:57:36;3.00;;;1.60;;
30337;SDS011;17143;51.888;5.408;2023-07-22T12:12:42;6.00;;;3.33;;
30337;SDS011;17143;51.888;5.408;2023-07-22T12:27:46;4.27;;;2.87;;
30337;SDS011;17143;51.888;5.408;2023-07-22T12:42:48;4.73;;;2.43;;
30337;SDS011;17143;51.888;5.408;2023-07-22T12:57:50;2.67;;;2.07;;
30337;SDS011;17143;51.888;5.408;2023-07-22T13:12:52;2.67;;;2.20;;
30337;SDS011;17143;51.888;5.408;2023-07-22T13:27:54;4.27;;;2.27;;
30337;SDS011;17143;51.888;5.408;2023-07-22T13:42:56;5.47;;;1.60;;
30337;SDS011;17143;51.888;5.408;2023-07-22T13:57:58;2.57;;;1.47;;
30337;SDS011;17143;51.888;5.408;2023-07-22T14:13:00;1.20;;;1.10;;
30337;SDS011;17143;51.888;5.408;2023-07-22T14:28:03;1.50;;;1.13;;
30337;SDS011;17143;51.888;5.408;2023-07-22T14:43:05;2.10;;;1.50;;
30337;SDS011;17143;51.888;5.408;2023-07-22T14:58:07;2.97;;;1.40;;
30337;SDS011;17143;51.888;5.408;2023-07-22T15:13:09;3.63;;;1.83;;
30337;SDS011;17143;51.888;5.408;2023-07-22T15:28:11;1.23;;;1.13;;
30337;SDS011;17143;51.888;5.408;2023-07-22T15:43:13;2.03;;;1.80;;
30337;SDS011;17143;51.888;5.408;2023-07-22T15:58:15;2.57;;;1.57;;
30337;SDS011;17143;51.888;5.408;2023-07-22T16:13:18;2.50;;;1.47;;
30337;SDS011;17143;51.888;5.408;2023-07-22T16:28:20;7.93;;;1.30;;
30337;SDS011;17143;51.888;5.408;2023-07-22T16:43:22;2.90;;;1.50;;
30337;SDS011;17143;51.888;5.408;2023-07-22T16:58:24;2.00;;;1.10;;
30337;SDS011;17143;51.888;5.408;2023-07-22T17:13:26;3.50;;;1.17;;
30337;SDS011;17143;51.888;5.408;2023-07-22T17:28:28;3.10;;;1.70;;
30337;SDS011;17143;51.888;5.408;2023-07-22T17:43:30;2.20;;;1.43;;
30337;SDS011;17143;51.888;5.408;2023-07-22T17:58:32;4.17;;;1.70;;
30337;SDS011;17143;51.888;5.408;2023-07-22T18:13:34;3.83;;;1.53;;
30337;SDS011;17143;51.888;5.408;2023-07-22T18:28:36;4.67;;;1.80;;
30337;SDS011;17143;51.888;5.408;2023-07-22T18:43:38;6.40;;;2.30;;
30337;SDS011;17143;51.888;5.408;2023-07-22T18:58:41;3.30;;;1.97;;
30337;SDS011;17143;51.888;5.408;2023-07-22T19:13:43;2.37;;;1.50;;
30337;SDS011;17143;51.888;5.408;2023-07-22T19:28:46;2.60;;;1.43;;
30337;SDS011;17143;51.888;5.408;2023-07-22T19:43:48;2.33;;;1.43;;
30337;SDS011;17143;51.888;5.408;2023-07-22T19:58:50;2.13;;;1.50;;
30337;SDS011;17143;51.888;5.408;2023-07-22T20:13:52;2.00;;;1.50;;
30337;SDS011;17143;51.888;5.408;2023-07-22T20:28:54;4.10;;;1.80;;
30337;SDS011;17143;51.888;5.408;2023-07-22T20:43:56;3.30;;;2.00;;
30337;SDS011;17143;51.888;5.408;2023-07-22T20:58:58;5.13;;;1.63;;
30337;SDS011;17143;51.888;5.408;2023-07-22T21:14:00;2.67;;;1.53;;
30337;SDS011;17143;51.888;5.408;2023-07-22T21:29:02;4.63;;;1.70;;
30337;SDS011;17143;51.888;5.408;2023-07-22T21:44:05;6.40;;;2.07;;
30337;SDS011;17143;51.888;5.408;2023-07-22T21:59:07;3.73;;;2.40;;
30337;SDS011;17143;51.888;5.408;2023-07-22T22:14:09;5.03;;;1.97;;
30337;SDS011;17143;51.888;5.408;2023-07-22T22:29:11;3.83;;;2.10;;
30337;SDS011;17143;51.888;5.408;2023-07-22T22:44:13;2.37;;;1.90;;
30337;SDS011;17143;51.888;5.408;2023-07-22T22:59:15;4.07;;;2.50;;
30337;SDS011;17143;51.888;5.408;2023-07-22T23:14:17;4.40;;;2.70;;
30337;SDS011;17143;51.888;5.408;2023-07-22T23:29:19;5.57;;;3.27;;
30337;SDS011;17143;51.888;5.408;2023-07-22T23:44:22;3.40;;;2.53;;
30337;SDS011;17143;51.888;5.408;2023-07-22T23:59:24;3.60;;;2.77;;
